Terminal Aerodrome Forecast
Issued by NWS Cleveland, OH

Home | Current Version | Previous Version | Graphics & Text | Print | Product List | Glossary Off
Versions: 1 2 3 4 5 6 7 8 9 10 11 12 13 14 15 16 17 18 19 20 21 22 23 24 25 26

757
FTUS41 KCLE 220223 AAA
TAFCLE
TAF AMD
KCLE 220223Z 2202/2306 20002KT P6SM -RA OVC120
     FM220500 20005KT P6SM OVC050
     FM220700 20005KT 6SM BR OVC025
     FM220900 20005KT 5SM BR OVC012
      TEMPO 2212/2215 OVC008
     FM221800 20008KT P6SM OVC015
     FM222100 20008KT P6SM OVC035
     FM230200 16004KT P6SM BKN120=

USA.gov is the U.S. government's official web portal to all federal, state and local government web resources and services.